Time;durP1;ratioP1;P1;durP2;ratioP2;P2;SDS_P1;SDS_P2;PMS_P1;PMS_P2;Temp;Humidity;BMP_temperature;BMP_pressure;BME280_temperature;BME280_humidity;BME280_pressure;Samples;Min_cycle;Max_cycle;Signal;HPM_P1;HPM_P2
2022/01/14 00:01:40;;;;;;;;;;;;;;;22.64;15.26;98845.56;5056159;28;942;-74
2022/01/14 00:04:06;;;;;;;;;;;;;;;22.33;15.25;98848.50;5055586;28;1024;-74
2022/01/14 00:06:31;;;;;;;;;;;;;;;21.98;15.79;98840.53;5056152;28;1147;-74
2022/01/14 00:09:05;;;;;;;;;;;;;;;22.03;15.78;98829.50;5054743;28;1020;-74
2022/01/14 00:11:32;;;;;;;;;;;;;;;22.24;15.67;98842.56;5075554;28;996;-74
2022/01/14 00:16:35;;;;;;;;;;;;;;;23.23;14.51;98825.00;5078194;28;884;-74
2022/01/14 00:19:03;;;;;;;;;;;;;;;22.91;14.80;98830.53;5074925;28;1926;-74
2022/01/14 00:21:30;;;;;;;;;;;;;;;22.50;15.43;98823.91;5075867;28;978;-74
2022/01/14 00:35:24;;;;;;;;;;;;;;;22.43;15.55;98823.22;4996186;28;1058;-74
2022/01/14 00:37:52;;;;;;;;;;;;;;;22.31;15.62;98816.94;4995819;28;1041;-75
2022/01/14 00:40:18;;;;;;;;;;;;;;;22.50;15.43;98817.44;4995270;28;1985;-74
2022/01/14 00:42:46;;;;;;;;;;;;;;;22.24;15.49;98817.06;4995956;28;1045;-74
2022/01/14 00:45:11;;;;;;;;;;;;;;;22.05;15.72;98814.91;4995215;28;1152;-74
2022/01/14 00:47:37;;;;;;;;;;;;;;;22.17;15.92;98817.16;4975953;28;1304;-74
2022/01/14 00:50:10;;;;;;;;;;;;;;;22.30;15.87;98823.84;4975607;28;962;-74
2022/01/14 00:52:39;;;;;;;;;;;;;;;22.26;15.63;98825.91;4976256;28;965;-74
2022/01/14 00:55:05;;;;;;;;;;;;;;;22.33;15.73;98817.31;4976041;28;1045;-74
2022/01/14 01:00:15;;;;;;;;;;;;;;;22.99;14.94;98806.44;4956352;28;2047;-74
2022/01/14 01:02:41;;;;;;;;;;;;;;;22.31;15.78;98811.25;4956664;28;1027;-75
2022/01/14 01:05:06;;;;;;;;;;;;;;;21.79;16.31;98803.13;4956671;28;1056;-74
2022/01/14 01:07:32;;;;;;;;;;;;;;;22.07;16.12;98801.09;4971603;28;1088;-74
2022/01/14 01:09:57;;;;;;;;;;;;;;;21.81;16.31;98789.38;5034630;28;964;-75
2022/01/14 01:12:40;;;;;;;;;;;;;;;21.68;16.21;98785.50;5034846;28;975;-75
2022/01/14 01:15:08;;;;;;;;;;;;;;;21.99;15.98;98783.41;5034695;28;915;-74
2022/01/14 01:17:33;;;;;;;;;;;;;;;21.73;16.26;98782.19;5037660;28;933;-75
2022/01/14 01:20:00;;;;;;;;;;;;;;;21.48;16.70;98776.06;5076478;28;1910;-74
2022/01/14 01:22:25;;;;;;;;;;;;;;;21.62;16.46;98778.72;5077361;28;1156;-74
2022/01/14 01:25:01;;;;;;;;;;;;;;;21.25;16.60;98773.94;5075114;28;1348;-74
2022/01/14 01:27:28;;;;;;;;;;;;;;;21.66;16.25;98770.97;5075574;28;905;-75
2022/01/14 01:30:10;;;;;;;;;;;;;;;21.75;16.26;98767.59;5076620;28;896;-75
2022/01/14 01:32:36;;;;;;;;;;;;;;;21.91;16.19;98762.06;5076501;28;1075;-75
2022/01/14 01:35:01;;;;;;;;;;;;;;;22.28;15.73;98760.31;5076451;28;945;-74
2022/01/14 01:37:27;;;;;;;;;;;;;;;21.74;16.20;98754.66;5076781;28;1006;-75
2022/01/14 01:39:52;;;;;;;;;;;;;;;21.65;16.44;98749.53;5076199;28;1898;-74
2022/01/14 01:42:23;;;;;;;;;;;;;;;21.97;15.99;98739.75;5076433;28;1064;-75
2022/01/14 01:44:49;;;;;;;;;;;;;;;21.33;16.46;98730.16;5073807;28;1057;-74
2022/01/14 01:47:15;;;;;;;;;;;;;;;21.91;16.21;98733.75;5057540;28;993;-74
2022/01/14 01:49:40;;;;;;;;;;;;;;;21.94;15.94;98737.75;5073683;28;1001;-75
2022/01/14 01:52:06;;;;;;;;;;;;;;;21.67;16.50;98718.75;5073772;28;1021;-74
2022/01/14 01:54:31;;;;;;;;;;;;;;;21.69;16.39;98719.13;5040410;28;1014;-75
2022/01/14 01:56:57;;;;;;;;;;;;;;;21.65;16.55;98718.38;5074292;28;945;-74
2022/01/14 01:59:23;;;;;;;;;;;;;;;22.00;16.14;98713.38;5073313;28;1918;-75
2022/01/14 02:01:48;;;;;;;;;;;;;;;21.83;16.15;98715.28;5074011;28;937;-75
2022/01/14 02:04:14;;;;;;;;;;;;;;;21.84;16.17;98709.16;5073875;28;1004;-75
2022/01/14 02:06:39;;;;;;;;;;;;;;;21.42;16.71;98704.19;5074036;28;988;-75
2022/01/14 02:09:05;;;;;;;;;;;;;;;21.72;16.12;98701.28;5073249;28;952;-75
2022/01/14 02:11:30;;;;;;;;;;;;;;;22.01;16.07;98700.78;5056832;28;1024;-75
2022/01/14 02:13:58;;;;;;;;;;;;;;;21.88;16.11;98705.47;5073395;28;950;-74
2022/01/14 02:16:47;;;;;;;;;;;;;;;21.90;16.35;98694.50;5075840;28;921;-74
2022/01/14 02:19:26;;;;;;;;;;;;;;;22.15;15.79;98694.91;5075426;28;1976;-75
2022/01/14 02:24:56;;;;;;;;;;;;;;;22.13;16.08;98693.75;5075917;28;978;-74
2022/01/14 02:27:20;;;;;;;;;;;;;;;21.56;16.30;98678.47;5076067;28;1074;-76
2022/01/14 02:29:46;;;;;;;;;;;;;;;22.18;16.24;98679.88;5075863;28;915;-74
2022/01/14 02:32:11;;;;;;;;;;;;;;;22.02;16.32;98679.72;5077377;28;961;-74
2022/01/14 02:34:37;;;;;;;;;;;;;;;21.71;16.56;98677.03;5079634;28;998;-74
2022/01/14 02:37:03;;;;;;;;;;;;;;;21.25;17.01;98672.84;5080315;28;914;-75
2022/01/14 02:39:29;;;;;;;;;;;;;;;22.32;16.09;98664.63;5077246;28;1984;-74
2022/01/14 02:41:54;;;;;;;;;;;;;;;21.58;16.64;98659.03;5080206;28;1032;-75
2022/01/14 02:44:25;;;;;;;;;;;;;;;21.60;16.75;98659.38;5079301;28;915;-74
2022/01/14 02:46:56;;;;;;;;;;;;;;;22.20;16.03;98662.44;5079856;28;937;-74
2022/01/14 02:49:27;;;;;;;;;;;;;;;21.66;16.42;98657.69;5079717;28;932;-75
2022/01/14 02:51:53;;;;;;;;;;;;;;;21.93;16.35;98651.16;5079487;28;990;-74
2022/01/14 02:54:24;;;;;;;;;;;;;;;21.79;16.21;98644.50;5076818;28;1090;-75
2022/01/14 02:56:51;;;;;;;;;;;;;;;22.17;15.79;98641.41;5079459;28;1136;-75
2022/01/14 02:59:16;;;;;;;;;;;;;;;21.94;16.32;98642.22;5078966;28;1905;-74
2022/01/14 03:01:42;;;;;;;;;;;;;;;21.62;16.48;98648.44;5079811;28;888;-74
2022/01/14 03:04:08;;;;;;;;;;;;;;;21.72;16.39;98644.63;5079467;28;914;-74
2022/01/14 03:06:33;;;;;;;;;;;;;;;22.38;15.71;98642.25;5079361;28;1052;-74
2022/01/14 03:08:59;;;;;;;;;;;;;;;22.32;16.04;98636.28;5079167;28;1093;-74
2022/01/14 03:11:32;;;;;;;;;;;;;;;22.02;16.14;98634.38;5079123;28;1031;-75
2022/01/14 03:13:58;;;;;;;;;;;;;;;22.27;16.01;98633.94;5079278;28;945;-75
2022/01/14 03:16:24;;;;;;;;;;;;;;;21.73;16.25;98634.91;5079090;28;961;-75
2022/01/14 03:18:52;;;;;;;;;;;;;;;22.07;16.21;98631.03;5078956;28;1956;-74
2022/01/14 03:21:26;;;;;;;;;;;;;;;21.79;16.15;98627.50;5079107;28;964;-74
2022/01/14 03:24:02;;;;;;;;;;;;;;;22.12;15.95;98622.06;5078745;28;958;-74
2022/01/14 03:26:28;;;;;;;;;;;;;;;21.63;16.41;98616.06;5079384;28;939;-75
2022/01/14 03:28:53;;;;;;;;;;;;;;;22.18;16.08;98613.91;5078689;28;1102;-75
2022/01/14 03:31:19;;;;;;;;;;;;;;;22.28;15.89;98619.34;5078901;28;913;-75
2022/01/14 03:33:44;;;;;;;;;;;;;;;21.74;16.20;98622.34;5078470;28;1115;-75
2022/01/14 03:36:10;;;;;;;;;;;;;;;21.66;16.28;98623.69;5078861;28;953;-74
2022/01/14 03:38:35;;;;;;;;;;;;;;;21.79;16.32;98604.03;5093086;28;1901;-75
2022/01/14 03:41:02;;;;;;;;;;;;;;;21.91;16.07;98616.78;5079554;28;1250;-75
2022/01/14 03:43:27;;;;;;;;;;;;;;;22.26;15.76;98612.50;5075200;28;1011;-75
2022/01/14 03:45:52;;;;;;;;;;;;;;;22.07;16.07;98605.53;5059788;28;979;-74
2022/01/14 03:48:18;;;;;;;;;;;;;;;21.98;15.94;98602.50;5075964;28;1090;-74
2022/01/14 03:50:43;;;;;;;;;;;;;;;22.23;15.83;98600.03;5076175;28;989;-75
2022/01/14 03:53:11;;;;;;;;;;;;;;;22.14;15.71;98594.13;5076149;28;996;-75
2022/01/14 03:55:40;;;;;;;;;;;;;;;22.61;15.73;98585.47;5059634;28;986;-74
2022/01/14 03:58:06;;;;;;;;;;;;;;;22.52;15.51;98588.09;5075685;28;944;-75
2022/01/14 04:00:31;;;;;;;;;;;;;;;22.00;16.04;98591.53;5076219;28;1914;-74
2022/01/14 04:02:57;;;;;;;;;;;;;;;22.35;15.66;98585.19;5075851;28;950;-75
2022/01/14 04:05:22;;;;;;;;;;;;;;;22.19;15.85;98587.94;5075575;28;1284;-74
2022/01/14 04:07:48;;;;;;;;;;;;;;;22.15;16.03;98575.88;5076028;28;1114;-74
2022/01/14 04:10:13;;;;;;;;;;;;;;;22.27;15.83;98580.88;5075554;28;1088;-74
2022/01/14 04:12:57;;;;;;;;;;;;;;;22.33;15.65;98586.88;5076301;28;970;-75
2022/01/14 04:15:39;;;;;;;;;;;;;;;22.27;15.57;98583.72;5077765;28;934;-75
2022/01/14 04:18:05;;;;;;;;;;;;;;;22.22;15.89;98581.38;5077927;28;1140;-74
2022/01/14 04:20:31;;;;;;;;;;;;;;;22.48;15.43;98576.81;5078223;28;1984;-74
2022/01/14 04:22:56;;;;;;;;;;;;;;;22.32;15.80;98574.69;5077981;28;882;-75
2022/01/14 04:25:22;;;;;;;;;;;;;;;22.07;15.94;98580.03;5075862;28;1133;-74
2022/01/14 04:27:48;;;;;;;;;;;;;;;22.16;15.59;98588.00;5078175;28;949;-74
2022/01/14 04:30:14;;;;;;;;;;;;;;;22.44;15.73;98578.16;5077722;28;858;-75
2022/01/14 04:32:39;;;;;;;;;;;;;;;22.46;15.56;98567.16;5077649;28;941;-74
2022/01/14 04:35:05;;;;;;;;;;;;;;;22.39;15.65;98567.31;5077713;28;937;-74
2022/01/14 04:37:30;;;;;;;;;;;;;;;22.53;15.39;98572.66;5077961;28;923;-75
2022/01/14 04:39:56;;;;;;;;;;;;;;;22.50;15.65;98562.22;5077354;28;1910;-75
2022/01/14 04:42:22;;;;;;;;;;;;;;;22.49;15.52;98549.28;5074750;28;1083;-74
2022/01/14 04:44:51;;;;;;;;;;;;;;;22.43;15.51;98560.31;5074714;28;881;-75
2022/01/14 04:47:29;;;;;;;;;;;;;;;22.06;15.97;98556.56;5075259;28;1002;-74
2022/01/14 04:49:54;;;;;;;;;;;;;;;21.83;16.24;98546.09;5075005;28;1021;-74
2022/01/14 04:52:20;;;;;;;;;;;;;;;22.26;15.81;98542.44;5075023;28;998;-75
2022/01/14 04:54:45;;;;;;;;;;;;;;;22.10;15.94;98548.00;5073791;28;975;-75
2022/01/14 04:57:11;;;;;;;;;;;;;;;22.28;15.87;98536.34;5074357;28;833;-74
2022/01/14 04:59:36;;;;;;;;;;;;;;;22.08;16.04;98536.31;5057263;28;1974;-74
2022/01/14 05:02:02;;;;;;;;;;;;;;;22.30;15.56;98531.81;5074427;28;913;-74
2022/01/14 05:04:28;;;;;;;;;;;;;;;22.29;15.87;98530.22;5053893;28;902;-74
2022/01/14 05:06:59;;;;;;;;;;;;;;;22.31;15.86;98533.41;5054268;28;888;-74
2022/01/14 05:09:31;;;;;;;;;;;;;;;22.35;15.54;98551.16;5054174;28;889;-75
2022/01/14 05:12:05;;;;;;;;;;;;;;;22.33;15.91;98536.63;5054593;28;735;-74
2022/01/14 05:14:30;;;;;;;;;;;;;;;22.34;15.55;98543.91;5073416;28;881;-75
2022/01/14 05:16:56;;;;;;;;;;;;;;;22.10;16.11;98548.00;5074325;28;762;-74
2022/01/14 05:19:21;;;;;;;;;;;;;;;22.75;15.28;98528.41;5073678;28;1902;-74
2022/01/14 05:21:46;;;;;;;;;;;;;;;22.37;15.87;98533.69;5057304;28;1007;-74
2022/01/14 05:24:12;;;;;;;;;;;;;;;22.05;16.11;98537.19;5073721;28;797;-74
2022/01/14 05:26:37;;;;;;;;;;;;;;;22.42;15.76;98521.06;5073743;28;767;-74
2022/01/14 05:29:03;;;;;;;;;;;;;;;22.76;15.33;98521.50;5073750;28;858;-74
2022/01/14 05:31:40;;;;;;;;;;;;;;;22.72;15.31;98517.94;5073913;28;825;-74
2022/01/14 05:34:06;;;;;;;;;;;;;;;22.19;15.94;98514.25;5073653;28;803;-74
2022/01/14 05:36:31;;;;;;;;;;;;;;;22.15;16.30;98505.00;5106559;28;869;-74
2022/01/14 05:38:57;;;;;;;;;;;;;;;22.34;16.06;98492.88;5075874;28;1972;-74
2022/01/14 05:41:22;;;;;;;;;;;;;;;21.88;16.55;98493.00;5076265;28;1036;-74
2022/01/14 05:43:47;;;;;;;;;;;;;;;21.53;16.68;98481.13;5073652;28;1025;-74
2022/01/14 05:46:13;;;;;;;;;;;;;;;21.94;16.06;98485.59;5076157;28;735;-74
2022/01/14 05:48:38;;;;;;;;;;;;;;;21.95;16.56;98487.19;5075726;28;849;-74
2022/01/14 05:51:04;;;;;;;;;;;;;;;21.44;16.93;98490.16;5076275;28;920;-75
2022/01/14 05:53:29;;;;;;;;;;;;;;;21.33;16.96;98487.53;5075952;28;898;-75
2022/01/14 05:55:55;;;;;;;;;;;;;;;21.70;16.57;98488.47;5076468;28;731;-74
2022/01/14 05:58:20;;;;;;;;;;;;;;;22.38;15.74;98472.13;5075621;28;1987;-74
2022/01/14 06:00:45;;;;;;;;;;;;;;;22.02;16.33;98458.69;5077785;28;771;-75
2022/01/14 06:03:11;;;;;;;;;;;;;;;21.33;16.72;98456.41;5070138;28;1662;-75
2022/01/14 06:05:36;;;;;;;;;;;;;;;21.61;16.50;98451.44;5067769;28;1462;-76
2022/01/14 06:08:02;;;;;;;;;;;;;;;22.09;16.06;98441.56;5064422;28;1471;-75
2022/01/14 06:10:28;;;;;;;;;;;;;;;21.95;16.06;98430.53;5065744;28;1402;-75
2022/01/14 06:12:53;;;;;;;;;;;;;;;21.59;16.23;98408.59;5064393;28;1494;-75
2022/01/14 06:15:19;;;;;;;;;;;;;;;22.46;15.84;98402.69;5067752;28;1498;-75
2022/01/14 06:17:47;;;;;;;;;;;;;;;23.29;14.75;98397.34;5078644;28;966;-75
2022/01/14 06:20:12;;;;;;;;;;;;;;;23.05;14.92;98387.44;5061373;28;1980;-75
2022/01/14 06:22:37;;;;;;;;;;;;;;;22.96;15.22;98381.63;5060651;28;699;-75
2022/01/14 06:25:03;;;;;;;;;;;;;;;23.00;14.95;98379.47;5056233;28;1439;-75
2022/01/14 06:27:32;;;;;;;;;;;;;;;22.51;15.53;98387.97;5067117;28;1019;-74
2022/01/14 06:29:58;;;;;;;;;;;;;;;22.52;15.57;98381.06;5065363;28;719;-74
2022/01/14 06:32:24;;;;;;;;;;;;;;;22.50;15.43;98375.03;5066139;28;1145;-74
2022/01/14 06:34:49;;;;;;;;;;;;;;;22.52;15.39;98378.22;5049426;28;1534;-74
2022/01/14 06:37:15;;;;;;;;;;;;;;;22.55;15.52;98366.00;5055814;28;946;-75
2022/01/14 06:39:40;;;;;;;;;;;;;;;22.59;15.41;98373.19;5055167;28;1957;-74
2022/01/14 06:42:06;;;;;;;;;;;;;;;22.68;15.56;98364.03;5060580;28;2107;-74
2022/01/14 06:44:31;;;;;;;;;;;;;;;22.81;15.33;98362.09;5067299;28;1218;-73
2022/01/14 06:46:57;;;;;;;;;;;;;;;22.48;15.60;98363.34;5054417;28;1060;-73
2022/01/14 06:49:22;;;;;;;;;;;;;;;22.23;15.96;98350.56;5073745;28;1086;-73
2022/01/14 06:51:47;;;;;;;;;;;;;;;22.29;15.97;98365.03;5074546;28;1006;-73
2022/01/14 06:54:13;;;;;;;;;;;;;;;22.93;15.06;98362.63;5074591;28;983;-73
2022/01/14 06:56:38;;;;;;;;;;;;;;;23.55;14.53;98357.69;5074580;28;972;-66
2022/01/14 06:59:05;;;;;;;;;;;;;;;23.30;15.20;98347.81;5060275;28;2015;-66
2022/01/14 07:01:30;;;;;;;;;;;;;;;22.65;15.80;98342.25;5057129;28;2082;-65
2022/01/14 07:03:58;;;;;;;;;;;;;;;22.56;16.36;98344.91;5054851;28;1002;-68
2022/01/14 07:06:23;;;;;;;;;;;;;;;22.75;16.41;98351.75;5086003;28;1013;-66
2022/01/14 07:08:49;;;;;;;;;;;;;;;23.05;16.00;98334.34;5074234;28;983;-66
2022/01/14 07:11:15;;;;;;;;;;;;;;;22.81;16.04;98336.56;5065860;28;1854;-64
2022/01/14 07:13:42;;;;;;;;;;;;;;;22.58;16.29;98345.25;5061402;28;1910;-67
2022/01/14 07:16:08;;;;;;;;;;;;;;;22.58;16.68;98328.25;5073553;28;911;-66
2022/01/14 07:18:33;;;;;;;;;;;;;;;22.72;16.30;98333.56;5071319;28;1938;-66
2022/01/14 07:20:59;;;;;;;;;;;;;;;22.72;16.62;98330.72;5071716;28;1095;-65
2022/01/14 07:23:24;;;;;;;;;;;;;;;22.60;16.30;98339.97;5065422;28;1544;-65
2022/01/14 07:25:50;;;;;;;;;;;;;;;22.53;16.54;98326.72;5064218;28;1009;-64
2022/01/14 07:28:15;;;;;;;;;;;;;;;22.53;16.37;98323.09;5077623;28;1329;-64
2022/01/14 07:30:41;;;;;;;;;;;;;;;22.61;16.42;98318.84;5077668;28;1033;-66
2022/01/14 07:33:06;;;;;;;;;;;;;;;22.71;16.45;98319.81;5073585;28;1877;-66
2022/01/14 07:35:32;;;;;;;;;;;;;;;22.63;16.39;98327.69;5068768;28;1044;-66
2022/01/14 07:37:57;;;;;;;;;;;;;;;22.67;16.33;98322.75;5065521;28;1845;-66
2022/01/14 07:40:23;;;;;;;;;;;;;;;22.61;16.54;98324.53;5073521;28;1934;-66
2022/01/14 07:42:48;;;;;;;;;;;;;;;22.55;16.68;98314.97;5064196;28;1048;-65
2022/01/14 07:45:13;;;;;;;;;;;;;;;22.47;17.03;98303.00;5055631;28;1135;-65
2022/01/14 07:47:39;;;;;;;;;;;;;;;22.22;17.25;98303.59;5068407;28;1782;-72
2022/01/14 07:50:04;;;;;;;;;;;;;;;21.94;17.39;98298.59;5064109;28;1944;-70
2022/01/14 07:52:32;;;;;;;;;;;;;;;22.25;17.28;98291.41;5055400;28;1143;-71
2022/01/14 07:54:58;;;;;;;;;;;;;;;22.15;17.07;98292.44;5067468;28;1966;-72
2022/01/14 07:57:23;;;;;;;;;;;;;;;22.34;17.00;98294.41;5068802;28;1871;-72
2022/01/14 07:59:49;;;;;;;;;;;;;;;22.46;16.65;98294.94;5061527;28;1918;-72
2022/01/14 08:02:15;;;;;;;;;;;;;;;22.47;16.73;98279.50;5060067;28;1664;-71
2022/01/14 08:04:41;;;;;;;;;;;;;;;22.54;16.70;98280.13;5060418;28;1899;-71
2022/01/14 08:07:10;;;;;;;;;;;;;;;22.08;17.06;98281.28;5076743;28;1018;-72
2022/01/14 08:09:36;;;;;;;;;;;;;;;22.43;16.43;98290.13;5076886;28;955;-71
2022/01/14 08:12:03;;;;;;;;;;;;;;;22.32;16.83;98294.03;5110103;28;902;-72
2022/01/14 08:14:28;;;;;;;;;;;;;;;22.33;16.51;98287.16;5076261;28;923;-72
2022/01/14 08:16:53;;;;;;;;;;;;;;;22.39;16.67;98293.09;5101187;28;1814;-71
2022/01/14 08:19:19;;;;;;;;;;;;;;;22.45;16.71;98287.69;5062363;28;1977;-71
2022/01/14 08:21:44;;;;;;;;;;;;;;;22.73;16.48;98286.13;5058498;28;2014;-71
2022/01/14 08:24:10;;;;;;;;;;;;;;;22.71;16.50;98278.06;5074443;28;1151;-72
2022/01/14 08:26:38;;;;;;;;;;;;;;;22.66;16.33;98275.78;5077051;28;1158;-72
2022/01/14 08:29:03;;;;;;;;;;;;;;;22.53;16.59;98289.88;5076285;28;930;-72
2022/01/14 08:31:29;;;;;;;;;;;;;;;22.23;16.94;98276.09;5106695;28;1613;-73
2022/01/14 08:33:54;;;;;;;;;;;;;;;22.09;17.04;98286.47;5066345;28;1845;-72
2022/01/14 08:36:20;;;;;;;;;;;;;;;22.24;16.68;98267.13;5066529;28;1030;-72
2022/01/14 08:38:46;;;;;;;;;;;;;;;22.28;16.90;98273.50;5076789;28;1902;-72
2022/01/14 08:41:11;;;;;;;;;;;;;;;22.01;17.17;98270.09;5077057;28;961;-72
2022/01/14 08:43:37;;;;;;;;;;;;;;;22.17;17.01;98278.63;5076799;28;906;-71
2022/01/14 08:46:02;;;;;;;;;;;;;;;22.29;16.87;98271.47;5076059;28;825;-72
2022/01/14 08:48:30;;;;;;;;;;;;;;;22.32;16.79;98262.06;5054559;28;992;-73
2022/01/14 08:50:56;;;;;;;;;;;;;;;22.22;16.84;98257.47;5056844;28;860;-72
2022/01/14 08:53:22;;;;;;;;;;;;;;;22.38;16.73;98256.66;5056596;28;1073;-71
2022/01/14 08:55:48;;;;;;;;;;;;;;;22.35;16.47;98244.97;5061778;28;1772;-71
2022/01/14 08:58:13;;;;;;;;;;;;;;;22.06;16.95;98241.22;5079265;28;1764;-71
2022/01/14 09:00:39;;;;;;;;;;;;;;;22.20;16.89;98232.41;5054236;28;1910;-71
2022/01/14 09:03:04;;;;;;;;;;;;;;;22.06;16.63;98222.19;5054395;28;1780;-72
2022/01/14 09:05:30;;;;;;;;;;;;;;;22.25;16.83;98234.69;5054752;28;1917;-72
2022/01/14 09:07:55;;;;;;;;;;;;;;;22.29;16.66;98218.41;5054398;28;1093;-72
2022/01/14 09:10:21;;;;;;;;;;;;;;;22.30;16.60;98220.00;5054298;28;1027;-72
2022/01/14 09:12:46;;;;;;;;;;;;;;;22.28;16.54;98216.03;5072878;28;1254;-72
2022/01/14 09:15:12;;;;;;;;;;;;;;;22.42;16.27;98209.16;5073905;28;903;-71
2022/01/14 09:17:37;;;;;;;;;;;;;;;22.14;16.87;98208.69;5074115;28;993;-72
2022/01/14 09:20:03;;;;;;;;;;;;;;;22.04;16.65;98198.38;5073441;28;1977;-71
2022/01/14 09:22:30;;;;;;;;;;;;;;;22.21;16.84;98199.97;5055696;28;1958;-71
2022/01/14 09:24:59;;;;;;;;;;;;;;;22.23;16.52;98191.84;5061013;28;975;-71
2022/01/14 09:27:24;;;;;;;;;;;;;;;22.31;16.74;98193.22;5069558;28;955;-71
2022/01/14 09:29:50;;;;;;;;;;;;;;;22.20;16.70;98192.72;5073815;28;970;-71
2022/01/14 09:32:15;;;;;;;;;;;;;;;22.31;16.71;98184.72;5073392;28;1067;-71
2022/01/14 09:34:41;;;;;;;;;;;;;;;22.19;16.87;98174.13;5070273;28;1622;-71
2022/01/14 09:37:06;;;;;;;;;;;;;;;22.24;16.52;98165.09;5073332;28;1051;-71
2022/01/14 09:39:33;;;;;;;;;;;;;;;21.98;17.05;98163.31;5075315;28;1906;-72
2022/01/14 09:41:59;;;;;;;;;;;;;;;22.42;16.72;98153.25;5076110;28;1012;-71
2022/01/14 09:44:24;;;;;;;;;;;;;;;22.15;16.83;98145.09;5076077;28;897;-71
2022/01/14 09:46:50;;;;;;;;;;;;;;;22.42;16.63;98146.78;5076082;28;1026;-72
2022/01/14 09:49:15;;;;;;;;;;;;;;;22.60;16.38;98133.72;5075398;28;880;-72
2022/01/14 09:51:41;;;;;;;;;;;;;;;22.28;16.81;98137.44;5107212;28;966;-72
2022/01/14 09:54:08;;;;;;;;;;;;;;;22.31;16.66;98125.19;5108228;28;933;-72
2022/01/14 09:56:33;;;;;;;;;;;;;;;22.31;16.78;98130.88;5075878;28;892;-72
2022/01/14 09:58:59;;;;;;;;;;;;;;;22.47;16.52;98127.19;5106822;28;1906;-71
2022/01/14 10:01:25;;;;;;;;;;;;;;;22.53;16.70;98124.59;5075861;28;931;-72
2022/01/14 10:03:57;;;;;;;;;;;;;;;22.41;16.83;98122.53;5090006;28;1006;-72
2022/01/14 10:06:40;;;;;;;;;;;;;;;22.30;16.67;98106.59;5075444;28;1153;-71
2022/01/14 10:09:19;;;;;;;;;;;;;;;22.40;16.85;98106.75;5075298;28;892;-72
2022/01/14 10:11:58;;;;;;;;;;;;;;;22.32;16.87;98106.94;5076269;28;870;-71
2022/01/14 10:14:24;;;;;;;;;;;;;;;22.61;16.38;98097.63;5074220;28;1900;-71
2022/01/14 10:16:53;;;;;;;;;;;;;;;22.69;16.46;98104.72;5075572;28;939;-71
2022/01/14 10:19:19;;;;;;;;;;;;;;;22.22;16.93;98093.88;5075622;28;1894;-71
2022/01/14 10:21:44;;;;;;;;;;;;;;;22.09;17.23;98084.50;5075414;28;1091;-71
2022/01/14 10:24:10;;;;;;;;;;;;;;;22.45;16.78;98075.03;5075667;28;962;-72
2022/01/14 10:26:45;;;;;;;;;;;;;;;22.84;16.42;98071.81;5075284;28;960;-72
2022/01/14 10:29:11;;;;;;;;;;;;;;;22.41;16.66;98068.66;5075008;28;925;-71
2022/01/14 10:31:37;;;;;;;;;;;;;;;22.23;17.14;98067.13;5075443;28;972;-72
2022/01/14 10:34:12;;;;;;;;;;;;;;;22.31;16.78;98062.84;5062685;28;1604;-71
2022/01/14 10:36:38;;;;;;;;;;;;;;;22.45;16.79;98058.00;5090586;28;1809;-71
2022/01/14 10:39:17;;;;;;;;;;;;;;;22.84;16.31;98066.13;5062872;28;1965;-71
2022/01/14 10:41:42;;;;;;;;;;;;;;;22.34;16.79;98056.28;5074346;28;1357;-71
2022/01/14 10:44:23;;;;;;;;;;;;;;;22.12;17.15;98043.94;5070774;28;934;-72
2022/01/14 10:46:49;;;;;;;;;;;;;;;22.51;17.02;98047.69;5053006;28;991;-71
2022/01/14 10:49:30;;;;;;;;;;;;;;;23.12;16.03;98038.16;5052431;28;934;-72
2022/01/14 10:52:12;;;;;;;;;;;;;;;22.47;16.96;98032.81;5073291;28;920;-71
2022/01/14 10:54:41;;;;;;;;;;;;;;;22.07;17.28;98030.28;5076585;28;960;-71
2022/01/14 10:57:16;;;;;;;;;;;;;;;22.49;17.04;98031.16;5082298;28;1718;-73
2022/01/14 10:59:42;;;;;;;;;;;;;;;22.80;16.76;98014.41;5088109;28;2123;-72
2022/01/14 11:02:26;;;;;;;;;;;;;;;22.74;16.74;98004.88;5076197;28;938;-71
2022/01/14 11:05:04;;;;;;;;;;;;;;;21.69;17.76;97993.31;5076224;28;969;-71
2022/01/14 11:07:31;;;;;;;;;;;;;;;21.82;17.87;97989.31;5042596;28;882;-72
2022/01/14 11:09:57;;;;;;;;;;;;;;;22.84;16.38;97986.69;5076541;28;1060;-72
2022/01/14 11:12:23;;;;;;;;;;;;;;;22.88;16.45;97961.88;5076447;28;953;-71
2022/01/14 11:14:48;;;;;;;;;;;;;;;22.23;17.26;97939.59;5059763;28;1055;-72
2022/01/14 11:17:14;;;;;;;;;;;;;;;21.87;17.79;97965.31;5064984;28;950;-71
2022/01/14 11:19:39;;;;;;;;;;;;;;;22.20;17.33;97960.31;5098546;28;1906;-72
2022/01/14 11:24:49;;;;;;;;;;;;;;;22.31;16.98;97966.47;5081620;28;1810;-71
2022/01/14 11:27:14;;;;;;;;;;;;;;;21.76;17.71;97959.13;5093667;28;984;-72
2022/01/14 11:29:42;;;;;;;;;;;;;;;22.46;17.14;97946.19;5079290;28;1048;-72
2022/01/14 11:32:08;;;;;;;;;;;;;;;22.99;16.60;97946.53;5073077;28;1785;-71
2022/01/14 11:34:37;;;;;;;;;;;;;;;22.47;17.22;97947.78;5061899;28;1770;-72
2022/01/14 11:37:06;;;;;;;;;;;;;;;21.57;18.29;97949.56;5071474;28;992;-71
2022/01/14 11:39:34;;;;;;;;;;;;;;;21.35;18.17;97940.03;5082128;28;1910;-73
2022/01/14 11:42:08;;;;;;;;;;;;;;;22.40;17.42;97936.66;5116114;28;1098;-72
2022/01/14 11:44:53;;;;;;;;;;;;;;;22.29;17.54;97929.28;5116537;28;1090;-72
2022/01/14 11:47:22;;;;;;;;;;;;;;;22.44;17.10;97929.63;5116310;28;959;-72
2022/01/14 11:49:47;;;;;;;;;;;;;;;21.98;17.39;97919.66;5116324;28;1048;-71
2022/01/14 11:52:12;;;;;;;;;;;;;;;22.20;17.28;97926.31;5109500;28;1605;-72
2022/01/14 11:54:38;;;;;;;;;;;;;;;22.33;17.49;97915.78;5115996;28;1088;-72
2022/01/14 11:57:03;;;;;;;;;;;;;;;21.93;17.86;97903.22;5116472;28;1093;-72
2022/01/14 11:59:29;;;;;;;;;;;;;;;22.16;17.69;97902.16;5088094;28;1977;-71
2022/01/14 12:01:55;;;;;;;;;;;;;;;22.55;17.27;97895.28;5096172;28;965;-72
2022/01/14 12:04:21;;;;;;;;;;;;;;;21.93;17.94;97889.06;5042908;28;1198;-72
2022/01/14 12:06:49;;;;;;;;;;;;;;;22.15;17.74;97884.38;5035289;28;1063;-72
2022/01/14 12:09:17;;;;;;;;;;;;;;;22.34;17.47;97880.53;5035339;28;969;-72
2022/01/14 12:11:42;;;;;;;;;;;;;;;21.68;18.25;97861.47;5051695;28;1011;-73
2022/01/14 12:14:08;;;;;;;;;;;;;;;21.81;18.16;97848.94;5034956;28;891;-72
2022/01/14 12:16:48;;;;;;;;;;;;;;;22.29;17.67;97858.41;5035146;28;969;-71
2022/01/14 12:19:17;;;;;;;;;;;;;;;22.36;17.69;97855.34;5035029;28;1894;-72
2022/01/14 12:21:43;;;;;;;;;;;;;;;21.84;18.04;97845.19;5034483;28;889;-72
2022/01/14 12:24:14;;;;;;;;;;;;;;;22.51;17.25;97844.34;5040737;28;1175;-73
2022/01/14 12:26:40;;;;;;;;;;;;;;;22.23;17.58;97839.59;5054961;28;1025;-72
2022/01/14 12:29:11;;;;;;;;;;;;;;;21.95;18.01;97835.56;5054314;28;1947;-73
2022/01/14 12:31:55;;;;;;;;;;;;;;;21.46;18.58;97835.81;5057416;28;1001;-72
2022/01/14 12:34:20;;;;;;;;;;;;;;;22.00;18.00;97832.97;5054982;28;1069;-72
2022/01/14 12:36:46;;;;;;;;;;;;;;;21.68;18.37;97833.94;5090032;28;871;-73
2022/01/14 12:39:11;;;;;;;;;;;;;;;21.89;18.22;97848.72;5057400;28;1906;-73
2022/01/14 12:41:36;;;;;;;;;;;;;;;22.03;18.29;97846.25;5061078;28;1968;-73
2022/01/14 12:44:02;;;;;;;;;;;;;;;22.40;17.83;97855.25;5075630;28;965;-72
2022/01/14 12:46:45;;;;;;;;;;;;;;;22.11;18.03;97852.50;5058059;28;971;-72
2022/01/14 12:49:32;;;;;;;;;;;;;;;22.09;18.18;97846.47;5064834;28;1899;-73
2022/01/14 12:52:11;;;;;;;;;;;;;;;22.63;17.45;97834.22;5062838;28;2070;-73
2022/01/14 12:54:37;;;;;;;;;;;;;;;22.25;17.77;97826.56;5055956;28;1928;-73
2022/01/14 12:57:03;;;;;;;;;;;;;;;21.54;18.49;97828.69;5070683;28;1566;-73
2022/01/14 12:59:36;;;;;;;;;;;;;;;21.78;18.60;97827.16;5072540;28;2202;-72
2022/01/14 13:02:02;;;;;;;;;;;;;;;23.20;16.75;97809.56;5077071;28;937;-73
2022/01/14 13:04:28;;;;;;;;;;;;;;;22.25;17.75;97825.75;5076294;28;1165;-72
2022/01/14 13:06:57;;;;;;;;;;;;;;;21.94;18.23;97814.16;5076511;28;994;-72
2022/01/14 13:09:44;;;;;;;;;;;;;;;22.41;17.75;97805.00;5075159;28;974;-72
2022/01/14 13:12:10;;;;;;;;;;;;;;;23.29;16.83;97795.47;5076387;28;954;-72
2022/01/14 13:14:46;;;;;;;;;;;;;;;22.23;18.04;97797.88;5075771;28;1207;-72
2022/01/14 13:17:15;;;;;;;;;;;;;;;21.83;18.32;97784.13;5076222;28;915;-72
2022/01/14 13:19:41;;;;;;;;;;;;;;;22.79;17.42;97780.19;5075860;28;1959;-72
2022/01/14 13:22:12;;;;;;;;;;;;;;;22.93;16.97;97786.66;5075933;28;1107;-72
2022/01/14 13:24:38;;;;;;;;;;;;;;;22.50;17.42;97785.25;5076512;28;904;-71
2022/01/14 13:27:04;;;;;;;;;;;;;;;22.27;17.77;97775.88;5076214;28;960;-72